createdAt,value
2017-07-01T00:00:13.669Z,19.14
2017-07-01T00:00:39.762Z,19.15
2017-07-01T00:01:05.924Z,19.26
2017-07-01T00:01:32.034Z,19.22
2017-07-01T00:01:58.127Z,19.15
2017-07-01T00:02:24.231Z,19.24
2017-07-01T00:02:50.347Z,19.27
2017-07-01T00:03:16.468Z,19.22
2017-07-01T00:03:42.600Z,19.19
2017-07-01T00:04:08.694Z,19.29
2017-07-01T00:04:34.785Z,19.29
2017-07-01T00:05:00.951Z,19.29
2017-07-01T00:05:27.045Z,19.27
2017-07-01T00:05:53.136Z,19.26
2017-07-01T00:06:19.239Z,19.37
2017-07-01T00:06:45.341Z,19.34
2017-07-01T00:07:11.454Z,19.3
2017-07-01T00:07:37.557Z,19.31
2017-07-01T00:08:03.673Z,19.29
2017-07-01T00:08:29.783Z,19.37
2017-07-01T00:08:55.907Z,19.34
2017-07-01T00:09:21.999Z,19.37
2017-07-01T00:09:48.158Z,19.29
2017-07-01T00:10:14.284Z,19.26
2017-07-01T00:10:40.375Z,19.34
2017-07-01T00:11:06.527Z,19.34
2017-07-01T00:11:32.662Z,19.3
2017-07-01T00:11:58.773Z,19.26
2017-07-01T00:12:24.897Z,19.24
2017-07-01T00:12:51.057Z,19.12
2017-07-01T00:13:17.169Z,19.19
2017-07-01T00:13:43.297Z,19.16
2017-07-01T00:14:09.388Z,19.26
2017-07-01T00:14:35.543Z,19.22
2017-07-01T00:15:01.707Z,19.24
2017-07-01T00:15:27.793Z,19.15
2017-07-01T00:15:53.918Z,19.24
2017-07-01T00:16:20.051Z,19.21
2017-07-01T00:16:46.167Z,19.22
2017-07-01T00:17:12.289Z,19.08
2017-07-01T00:17:38.396Z,19.09
2017-07-01T00:18:04.540Z,19.09
2017-07-01T00:18:30.655Z,19.11
2017-07-01T00:18:56.786Z,19.09
2017-07-01T00:19:22.961Z,19.09
2017-07-01T00:19:49.093Z,19.12
2017-07-01T00:20:15.183Z,19.08
2017-07-01T00:20:41.303Z,19.21
2017-07-01T00:21:07.409Z,19.21
2017-07-01T00:21:33.500Z,19.19
2017-07-01T00:21:59.641Z,19.18
2017-07-01T00:22:25.774Z,19.3
2017-07-01T00:22:51.896Z,19.16
2017-07-01T00:23:18.011Z,19.16
2017-07-01T00:23:44.142Z,19.3
2017-07-01T00:24:10.240Z,19.14
2017-07-01T00:24:36.356Z,19.18
2017-07-01T00:25:02.533Z,19.07
2017-07-01T00:25:28.640Z,19.09
2017-07-01T00:25:54.727Z,19.07
2017-07-01T00:26:20.826Z,19.15
2017-07-01T00:26:46.961Z,19.22
2017-07-01T00:27:13.102Z,19.14
2017-07-01T00:27:39.201Z,19.24
2017-07-01T00:28:05.337Z,19.14
2017-07-01T00:28:31.430Z,19.12
2017-07-01T00:28:57.522Z,19.11
2017-07-01T00:29:23.658Z,19.12
2017-07-01T00:29:49.812Z,19.15
2017-07-01T00:30:15.914Z,19.16
2017-07-01T00:30:42.058Z,19.26
2017-07-01T00:31:08.152Z,19.19
2017-07-01T00:31:34.287Z,19.22
2017-07-01T00:32:00.381Z,19.21
2017-07-01T00:32:26.472Z,19.26
2017-07-01T00:32:52.608Z,19.14
2017-07-01T00:33:18.758Z,19.26
2017-07-01T00:33:44.874Z,19.19
2017-07-01T00:34:11.008Z,19.19
2017-07-01T00:34:37.164Z,19.27
2017-07-01T00:35:03.329Z,19.22
2017-07-01T00:35:29.436Z,19.21
2017-07-01T00:35:55.553Z,19.21
2017-07-01T00:36:21.663Z,19.22
2017-07-01T00:36:47.785Z,19.15
2017-07-01T00:37:13.899Z,19.14
2017-07-01T00:37:40.032Z,19.19
2017-07-01T00:38:06.130Z,19.26
2017-07-01T00:38:32.269Z,19.15
2017-07-01T00:38:58.395Z,19.04
2017-07-01T00:39:24.616Z,19.12
2017-07-01T00:39:50.698Z,19.12
2017-07-01T00:40:16.826Z,19.12
2017-07-01T00:40:42.957Z,19.08
2017-07-01T00:41:09.094Z,19.09
2017-07-01T00:41:35.278Z,19.16
2017-07-01T00:42:01.369Z,19.12
2017-07-01T00:42:27.495Z,19.04
2017-07-01T00:42:53.600Z,19.04
2017-07-01T00:43:19.711Z,19.07
2017-07-01T00:43:45.809Z,19
2017-07-01T00:44:11.916Z,19.04
2017-07-01T00:44:38.057Z,18.98
2017-07-01T00:45:04.175Z,19.07
2017-07-01T00:45:30.305Z,18.98
2017-07-01T00:45:56.422Z,19.08
2017-07-01T00:46:22.514Z,19.09
2017-07-01T00:46:48.616Z,19
2017-07-01T00:47:14.715Z,19.12
2017-07-01T00:47:40.819Z,18.99
2017-07-01T00:48:06.937Z,19.04
2017-07-01T00:48:33.035Z,19.08
2017-07-01T00:48:59.196Z,19.09
2017-07-01T00:49:25.340Z,19.11
2017-07-01T00:49:51.480Z,19.12
2017-07-01T00:50:17.646Z,19.12
2017-07-01T00:50:43.745Z,19.09
2017-07-01T00:51:09.837Z,19.12
2017-07-01T00:51:35.967Z,19.11
2017-07-01T00:52:02.066Z,19.09
2017-07-01T00:52:28.189Z,19.18
2017-07-01T00:52:54.309Z,19.11
2017-07-01T00:53:20.420Z,19.12
2017-07-01T00:53:46.587Z,19.07
2017-07-01T00:54:12.710Z,18.95
2017-07-01T00:54:38.802Z,19.07
2017-07-01T00:55:04.957Z,19.07
2017-07-01T00:55:31.055Z,19.07
2017-07-01T00:55:57.169Z,19.07
2017-07-01T00:56:23.298Z,19.07
2017-07-01T00:56:49.433Z,19.07
2017-07-01T00:57:15.520Z,19.07
2017-07-01T00:57:41.618Z,19.04
2017-07-01T00:58:07.737Z,19.07
2017-07-01T00:58:33.922Z,19.08
2017-07-01T00:59:00.080Z,19.07
2017-07-01T00:59:26.221Z,19.04
2017-07-01T00:59:52.324Z,19.08
2017-07-01T01:00:18.457Z,19.07
2017-07-01T01:00:44.568Z,19
2017-07-01T01:01:10.667Z,19.02
2017-07-01T01:01:36.800Z,19.08
2017-07-01T01:02:02.919Z,19.04
2017-07-01T01:02:29.015Z,19.09
2017-07-01T01:02:55.148Z,19
2017-07-01T01:03:21.241Z,19.02
2017-07-01T01:03:47.346Z,19.04
2017-07-01T01:04:13.458Z,19.04
2017-07-01T01:04:39.581Z,19.12
2017-07-01T01:05:05.716Z,19.08
2017-07-01T01:05:31.805Z,19.15
2017-07-01T01:05:57.926Z,19.07
2017-07-01T01:06:24.031Z,19.09
2017-07-01T01:06:50.125Z,19.07
2017-07-01T01:07:16.217Z,19.08
2017-07-01T01:07:42.323Z,19.07
2017-07-01T01:08:08.420Z,19.09
2017-07-01T01:08:34.534Z,19.12
2017-07-01T01:09:00.697Z,19.07
2017-07-01T01:09:26.823Z,19.04
2017-07-01T01:09:52.938Z,19.09
2017-07-01T01:10:19.041Z,19
2017-07-01T01:10:45.148Z,18.92
2017-07-01T01:11:11.261Z,18.89
2017-07-01T01:11:37.362Z,18.84
2017-07-01T01:12:03.466Z,18.83
2017-07-01T01:12:29.559Z,18.89
2017-07-01T01:12:55.653Z,18.86
2017-07-01T01:13:21.761Z,18.81
2017-07-01T01:13:47.855Z,18.84
2017-07-01T01:14:13.969Z,18.83
2017-07-01T01:14:40.100Z,18.89
2017-07-01T01:15:06.201Z,18.83
2017-07-01T01:15:32.304Z,18.81
2017-07-01T01:15:58.422Z,18.84
2017-07-01T01:16:24.567Z,18.86
2017-07-01T01:16:50.673Z,18.83
2017-07-01T01:17:16.767Z,18.83
2017-07-01T01:17:42.856Z,18.84
2017-07-01T01:18:08.965Z,18.86
2017-07-01T01:18:35.090Z,18.83
2017-07-01T01:19:01.203Z,18.84
2017-07-01T01:19:27.384Z,18.88
2017-07-01T01:19:53.513Z,18.88
2017-07-01T01:20:19.640Z,18.84
2017-07-01T01:20:45.732Z,18.92
2017-07-01T01:21:11.822Z,18.92
2017-07-01T01:21:37.988Z,18.88
2017-07-01T01:22:04.085Z,18.84
2017-07-01T01:22:30.199Z,18.92
2017-07-01T01:22:56.336Z,18.83
2017-07-01T01:23:22.441Z,18.88
2017-07-01T01:23:48.552Z,18.84
2017-07-01T01:24:14.706Z,18.88
2017-07-01T01:24:40.810Z,18.84
2017-07-01T01:25:06.947Z,18.8
2017-07-01T01:25:33.045Z,18.8
2017-07-01T01:25:59.164Z,18.86
2017-07-01T01:26:25.323Z,18.84
2017-07-01T01:26:51.423Z,18.88
2017-07-01T01:27:17.514Z,18.84
2017-07-01T01:27:43.617Z,18.86
2017-07-01T01:28:09.778Z,18.84
2017-07-01T01:28:35.889Z,18.8
2017-07-01T01:29:01.989Z,18.88
2017-07-01T01:29:28.152Z,18.75
2017-07-01T01:29:54.241Z,18.88
2017-07-01T01:30:20.337Z,18.8
2017-07-01T01:30:46.471Z,18.81
2017-07-01T01:31:12.564Z,18.83
2017-07-01T01:31:38.696Z,18.73
2017-07-01T01:32:04.782Z,18.74
2017-07-01T01:32:30.880Z,18.7
2017-07-01T01:32:56.986Z,18.71
2017-07-01T01:33:23.103Z,18.65
2017-07-01T01:33:49.297Z,18.66
2017-07-01T01:34:15.455Z,18.7
2017-07-01T01:34:41.573Z,18.56
2017-07-01T01:35:07.687Z,18.66
2017-07-01T01:35:33.795Z,18.62
2017-07-01T01:35:59.920Z,18.78
2017-07-01T01:36:26.011Z,18.71
2017-07-01T01:36:52.117Z,18.74
2017-07-01T01:37:18.210Z,18.8
2017-07-01T01:37:44.314Z,18.78
2017-07-01T01:38:10.409Z,18.8
2017-07-01T01:38:36.500Z,18.71
2017-07-01T01:39:02.607Z,18.83
2017-07-01T01:39:28.704Z,18.73
2017-07-01T01:39:54.796Z,18.8
2017-07-01T01:40:20.933Z,18.81
2017-07-01T01:40:47.029Z,18.83
2017-07-01T01:41:13.147Z,18.78
2017-07-01T01:41:39.279Z,18.83
2017-07-01T01:42:05.382Z,18.84
2017-07-01T01:42:31.500Z,18.83
2017-07-01T01:42:57.623Z,18.75
2017-07-01T01:43:23.738Z,18.8
2017-07-01T01:43:49.869Z,18.86
2017-07-01T01:44:15.971Z,18.8
2017-07-01T01:44:42.060Z,18.65
2017-07-01T01:45:08.162Z,18.74
2017-07-01T01:45:34.268Z,18.63
2017-07-01T01:46:00.355Z,18.62
2017-07-01T01:46:26.454Z,18.68
2017-07-01T01:46:52.561Z,18.63
2017-07-01T01:47:18.650Z,18.65
2017-07-01T01:47:44.747Z,18.53
2017-07-01T01:48:10.843Z,18.52
2017-07-01T01:48:36.998Z,18.55
2017-07-01T01:49:03.160Z,18.4
2017-07-01T01:49:29.246Z,18.4
2017-07-01T01:49:55.370Z,18.41
2017-07-01T01:50:21.502Z,18.43
2017-07-01T01:50:47.615Z,18.47
2017-07-01T01:51:13.712Z,18.5
2017-07-01T01:51:39.844Z,18.4
2017-07-01T01:52:05.964Z,18.37
2017-07-01T01:52:32.056Z,18.38
2017-07-01T01:52:58.191Z,18.31
2017-07-01T01:53:24.288Z,18.31
2017-07-01T01:53:50.376Z,18.25
2017-07-01T01:54:16.483Z,18.25
2017-07-01T01:54:42.609Z,18.23
2017-07-01T01:55:08.747Z,18.25
2017-07-01T01:55:34.851Z,18.29
2017-07-01T01:56:00.982Z,18.28
2017-07-01T01:56:27.086Z,18.33
2017-07-01T01:56:53.193Z,18.23
2017-07-01T01:57:19.298Z,18.19
2017-07-01T01:57:45.415Z,18.19
2017-07-01T01:58:11.585Z,18.16
2017-07-01T01:58:37.746Z,18.18
2017-07-01T01:59:03.867Z,18.11
2017-07-01T01:59:29.999Z,18.25
2017-07-01T01:59:56.139Z,18.16
2017-07-01T02:00:22.285Z,18.16
2017-07-01T02:00:48.390Z,18.11
2017-07-01T02:01:14.508Z,18.07
2017-07-01T02:01:40.653Z,18.15
2017-07-01T02:02:06.786Z,18.11
2017-07-01T02:02:32.881Z,18.08
2017-07-01T02:02:59.009Z,18.03
2017-07-01T02:03:25.118Z,18.03
2017-07-01T02:03:51.270Z,17.95
2017-07-01T02:04:17.382Z,17.87
2017-07-01T02:04:43.488Z,17.98
2017-07-01T02:05:09.608Z,17.85
2017-07-01T02:05:35.720Z,17.87
2017-07-01T02:06:01.822Z,17.8
2017-07-01T02:06:27.930Z,17.83
2017-07-01T02:06:54.014Z,17.85
2017-07-01T02:07:20.115Z,17.82
2017-07-01T02:07:46.247Z,17.85
2017-07-01T02:08:12.338Z,17.85
2017-07-01T02:08:38.436Z,17.74
2017-07-01T02:09:04.569Z,17.83
2017-07-01T02:09:30.691Z,17.86
2017-07-01T02:09:56.806Z,17.86
2017-07-01T02:10:22.961Z,17.86
2017-07-01T02:10:49.090Z,17.82
2017-07-01T02:11:15.193Z,17.87
2017-07-01T02:11:41.329Z,17.79
2017-07-01T02:12:07.428Z,17.86
2017-07-01T02:12:33.590Z,17.8
2017-07-01T02:12:59.684Z,17.86
2017-07-01T02:13:25.774Z,17.86
2017-07-01T02:13:51.939Z,17.78
2017-07-01T02:14:18.062Z,17.79
2017-07-01T02:14:44.207Z,17.72
2017-07-01T02:15:10.366Z,17.79
2017-07-01T02:15:36.495Z,17.78
2017-07-01T02:16:02.592Z,17.83
2017-07-01T02:16:28.689Z,17.74
2017-07-01T02:16:54.779Z,17.76
2017-07-01T02:17:20.911Z,17.79
2017-07-01T02:17:47.007Z,17.68
2017-07-01T02:18:13.142Z,17.65
2017-07-01T02:18:39.275Z,17.65
2017-07-01T02:19:05.373Z,17.67
2017-07-01T02:19:31.463Z,17.64
2017-07-01T02:19:57.592Z,17.7
2017-07-01T02:20:23.726Z,17.6
2017-07-01T02:20:49.812Z,17.74
2017-07-01T02:21:15.912Z,17.65
2017-07-01T02:21:42.005Z,17.7
2017-07-01T02:22:08.109Z,17.79
2017-07-01T02:22:34.208Z,17.76
2017-07-01T02:23:00.297Z,17.8
2017-07-01T02:23:26.399Z,17.79
2017-07-01T02:23:52.505Z,17.79
2017-07-01T02:24:18.643Z,17.82
2017-07-01T02:24:44.790Z,17.82
2017-07-01T02:25:10.896Z,17.76
2017-07-01T02:25:36.984Z,17.74
2017-07-01T02:26:03.078Z,17.78
2017-07-01T02:26:29.241Z,17.74
2017-07-01T02:26:55.359Z,17.7
2017-07-01T02:27:21.465Z,17.65
2017-07-01T02:27:47.555Z,17.63
2017-07-01T02:28:13.732Z,17.63
2017-07-01T02:28:39.866Z,17.7
2017-07-01T02:29:05.982Z,17.7
2017-07-01T02:29:32.126Z,17.82
2017-07-01T02:29:58.261Z,17.71
2017-07-01T02:30:24.430Z,17.65
2017-07-01T02:30:50.519Z,17.56
2017-07-01T02:31:16.683Z,17.64
2017-07-01T02:31:42.776Z,17.74
2017-07-01T02:32:08.865Z,17.65
2017-07-01T02:32:34.998Z,17.68
2017-07-01T02:33:01.097Z,17.63
2017-07-01T02:33:27.197Z,17.57
2017-07-01T02:33:53.289Z,17.6
2017-07-01T02:34:19.379Z,17.6
2017-07-01T02:34:45.513Z,17.64
2017-07-01T02:35:11.609Z,17.63
2017-07-01T02:35:37.750Z,17.65
2017-07-01T02:36:03.876Z,17.63
2017-07-01T02:36:29.974Z,17.59
2017-07-01T02:36:56.086Z,17.65
2017-07-01T02:37:22.280Z,17.63
2017-07-01T02:37:48.406Z,17.59
2017-07-01T02:38:14.492Z,17.59
2017-07-01T02:38:40.615Z,17.63
2017-07-01T02:39:06.774Z,17.64
2017-07-01T02:39:32.917Z,17.68
2017-07-01T02:39:59.039Z,17.6
2017-07-01T02:40:25.145Z,17.6
2017-07-01T02:40:51.266Z,17.65
2017-07-01T02:41:17.381Z,17.65
2017-07-01T02:41:43.490Z,17.68
2017-07-01T02:42:09.639Z,17.8
2017-07-01T02:42:35.729Z,17.79
2017-07-01T02:43:01.862Z,17.74
2017-07-01T02:43:27.959Z,17.79
2017-07-01T02:43:54.082Z,17.85
2017-07-01T02:44:20.175Z,17.83
2017-07-01T02:44:46.265Z,17.7
2017-07-01T02:45:12.374Z,17.79
2017-07-01T02:45:38.494Z,17.79
2017-07-01T02:46:04.583Z,17.83
2017-07-01T02:46:30.689Z,17.83
2017-07-01T02:46:56.789Z,17.82
2017-07-01T02:47:22.928Z,17.79
2017-07-01T02:47:49.085Z,17.82
2017-07-01T02:48:15.190Z,17.8
2017-07-01T02:48:41.327Z,17.83
2017-07-01T02:49:07.478Z,17.82
2017-07-01T02:49:33.601Z,17.94
2017-07-01T02:49:59.727Z,17.87
2017-07-01T02:50:25.852Z,17.83
2017-07-01T02:50:51.966Z,17.82
2017-07-01T02:51:18.095Z,17.79
2017-07-01T02:51:44.202Z,17.74
2017-07-01T02:52:10.310Z,17.8
2017-07-01T02:52:36.411Z,17.86
2017-07-01T02:53:02.544Z,17.78
2017-07-01T02:53:28.685Z,17.83
2017-07-01T02:53:54.854Z,17.85
2017-07-01T02:54:20.957Z,17.7
2017-07-01T02:54:47.098Z,17.7
2017-07-01T02:55:13.229Z,17.79
2017-07-01T02:55:39.340Z,17.74
2017-07-01T02:56:05.438Z,17.87
2017-07-01T02:56:31.543Z,17.85
2017-07-01T02:56:57.679Z,17.8
2017-07-01T02:57:23.800Z,17.85
2017-07-01T02:57:49.906Z,17.74
2017-07-01T02:58:16.103Z,17.67
2017-07-01T02:58:42.220Z,17.76
2017-07-01T02:59:08.386Z,17.57
2017-07-01T02:59:34.507Z,17.6
2017-07-01T03:00:00.621Z,17.7
2017-07-01T03:00:26.727Z,17.63
2017-07-01T03:00:52.827Z,17.45
2017-07-01T03:01:18.916Z,17.51
2017-07-01T03:01:45.016Z,17.49
2017-07-01T03:02:11.121Z,17.64
2017-07-01T03:02:37.209Z,17.71
2017-07-01T03:03:03.334Z,17.63
2017-07-01T03:03:29.441Z,17.65
2017-07-01T03:03:55.581Z,17.63
2017-07-01T03:04:21.678Z,17.72
2017-07-01T03:04:47.810Z,17.72
2017-07-01T03:05:13.903Z,17.65
2017-07-01T03:05:39.995Z,17.59
2017-07-01T03:06:06.124Z,17.68
2017-07-01T03:06:32.277Z,17.63
2017-07-01T03:06:58.406Z,17.59
2017-07-01T03:07:24.520Z,17.63
2017-07-01T03:07:50.616Z,17.67
2017-07-01T03:08:16.752Z,17.63
2017-07-01T03:08:42.872Z,17.6
2017-07-01T03:09:09.011Z,17.48
2017-07-01T03:09:35.176Z,17.49
2017-07-01T03:10:01.272Z,17.52
2017-07-01T03:10:27.362Z,17.51
2017-07-01T03:10:53.494Z,17.49
2017-07-01T03:11:19.616Z,17.51
2017-07-01T03:11:45.717Z,17.49
2017-07-01T03:12:11.810Z,17.51
2017-07-01T03:12:37.926Z,17.51
2017-07-01T03:13:04.142Z,17.46
2017-07-01T03:13:30.266Z,17.49
2017-07-01T03:13:56.380Z,17.45
2017-07-01T03:14:22.511Z,17.38
2017-07-01T03:14:48.694Z,17.44
2017-07-01T03:15:14.785Z,17.34
2017-07-01T03:15:40.914Z,17.33
2017-07-01T03:16:07.021Z,17.38
2017-07-01T03:16:33.136Z,17.26
2017-07-01T03:16:59.285Z,17.26
2017-07-01T03:17:25.379Z,17.24
2017-07-01T03:17:51.483Z,17.27
2017-07-01T03:18:17.579Z,17.39
2017-07-01T03:18:43.742Z,17.31
2017-07-01T03:19:09.843Z,17.33
2017-07-01T03:19:35.976Z,17.38
2017-07-01T03:20:02.087Z,17.29
2017-07-01T03:20:28.187Z,17.24
2017-07-01T03:20:54.321Z,17.29
2017-07-01T03:21:20.412Z,17.36
2017-07-01T03:21:46.559Z,17.39
2017-07-01T03:22:12.692Z,17.29
2017-07-01T03:22:38.807Z,17.26
2017-07-01T03:23:04.896Z,17.33
2017-07-01T03:23:31.031Z,17.27
2017-07-01T03:23:57.186Z,17.29
2017-07-01T03:24:23.324Z,17.27
2017-07-01T03:24:49.429Z,17.29
2017-07-01T03:25:15.526Z,17.27
2017-07-01T03:25:41.614Z,17.3
2017-07-01T03:26:07.770Z,17.27
2017-07-01T03:26:33.907Z,17.22
2017-07-01T03:27:00.018Z,17.22
2017-07-01T03:27:26.142Z,17.22
2017-07-01T03:27:52.275Z,17.22
2017-07-01T03:28:18.364Z,17.15
2017-07-01T03:28:44.493Z,17.24
2017-07-01T03:29:10.605Z,17.29
2017-07-01T03:29:36.731Z,17.29
2017-07-01T03:30:02.890Z,17.14
2017-07-01T03:30:28.998Z,17.27
2017-07-01T03:30:55.125Z,17.16
2017-07-01T03:31:21.232Z,17.24
2017-07-01T03:31:47.348Z,17.22
2017-07-01T03:32:13.442Z,17.24
2017-07-01T03:32:39.575Z,17.23
2017-07-01T03:33:05.696Z,17.22
2017-07-01T03:33:31.810Z,17.16
2017-07-01T03:33:57.913Z,17.19
2017-07-01T03:34:24.090Z,17.23
2017-07-01T03:34:50.196Z,17.24
2017-07-01T03:35:16.286Z,17.24
2017-07-01T03:35:42.383Z,17.24
2017-07-01T03:36:08.488Z,17.22
2017-07-01T03:36:34.610Z,17.27
2017-07-01T03:37:00.725Z,17.29
2017-07-01T03:37:26.885Z,17.26
2017-07-01T03:37:52.982Z,17.27
2017-07-01T03:38:19.098Z,17.24
2017-07-01T03:38:45.229Z,17.19
2017-07-01T03:39:11.409Z,17.3
2017-07-01T03:39:37.583Z,17.2
2017-07-01T03:40:03.738Z,17.16
2017-07-01T03:40:29.794Z,17.2
2017-07-01T03:40:55.903Z,17.14
2017-07-01T03:41:21.995Z,17.19
2017-07-01T03:41:48.086Z,17.19
2017-07-01T03:42:14.190Z,17.2
2017-07-01T03:42:40.290Z,17.12
2017-07-01T03:43:06.426Z,17.06
2017-07-01T03:43:32.853Z,17.09
2017-07-01T03:43:58.959Z,17.15
2017-07-01T03:44:25.046Z,17.29
2017-07-01T03:44:51.175Z,17.23
2017-07-01T03:45:17.288Z,17.23
2017-07-01T03:45:43.395Z,17.29
2017-07-01T03:46:09.522Z,17.31
2017-07-01T03:46:35.612Z,17.33
2017-07-01T03:47:01.716Z,17.34
2017-07-01T03:47:27.844Z,17.36
2017-07-01T03:47:53.929Z,17.44
2017-07-01T03:48:20.052Z,17.39
2017-07-01T03:48:46.184Z,17.39
2017-07-01T03:49:12.301Z,17.36
2017-07-01T03:49:38.449Z,17.38
2017-07-01T03:50:04.582Z,17.38
2017-07-01T03:50:30.703Z,17.36
2017-07-01T03:50:56.808Z,17.39
2017-07-01T03:51:22.916Z,17.41
2017-07-01T03:51:49.042Z,17.38
2017-07-01T03:52:15.148Z,17.38
2017-07-01T03:52:41.239Z,17.36
2017-07-01T03:53:07.362Z,17.29
2017-07-01T03:53:33.547Z,17.34
2017-07-01T03:53:59.664Z,17.33
2017-07-01T03:54:25.803Z,17.31
2017-07-01T03:54:51.965Z,17.38
2017-07-01T03:55:18.090Z,17.34
2017-07-01T03:55:44.179Z,17.36
2017-07-01T03:56:10.367Z,17.42
2017-07-01T03:56:36.461Z,17.36
2017-07-01T03:57:02.620Z,17.31
2017-07-01T03:57:28.711Z,17.44
2017-07-01T03:57:54.806Z,17.39
2017-07-01T03:58:20.909Z,17.33
2017-07-01T03:58:47.032Z,17.46
2017-07-01T03:59:13.146Z,17.41
2017-07-01T03:59:39.252Z,17.44
2017-07-01T04:00:05.353Z,17.45
2017-07-01T04:00:31.464Z,17.39
2017-07-01T04:00:57.623Z,17.46
2017-07-01T04:01:23.751Z,17.46
2017-07-01T04:01:49.842Z,17.51
2017-07-01T04:02:15.937Z,17.41
2017-07-01T04:02:42.026Z,17.42
2017-07-01T04:03:08.157Z,17.34
2017-07-01T04:03:34.342Z,17.48
2017-07-01T04:04:00.455Z,17.31
2017-07-01T04:04:26.571Z,17.34
2017-07-01T04:04:52.707Z,17.39
2017-07-01T04:05:18.819Z,17.31
2017-07-01T04:05:44.918Z,17.42
2017-07-01T04:06:11.051Z,17.41
2017-07-01T04:06:37.141Z,17.38
2017-07-01T04:07:03.262Z,17.42
2017-07-01T04:07:29.368Z,17.39
2017-07-01T04:07:55.488Z,17.34
2017-07-01T04:08:21.579Z,17.38
2017-07-01T04:08:47.745Z,17.36
2017-07-01T04:09:13.868Z,17.31
2017-07-01T04:09:40.007Z,17.39
2017-07-01T04:10:06.139Z,17.3
2017-07-01T04:10:32.265Z,17.38
2017-07-01T04:10:58.356Z,17.34
2017-07-01T04:11:24.458Z,17.45
2017-07-01T04:11:50.563Z,17.38
2017-07-01T04:12:16.651Z,17.46
2017-07-01T04:12:42.774Z,17.29
2017-07-01T04:13:08.919Z,17.38
2017-07-01T04:13:35.025Z,17.34
2017-07-01T04:14:01.153Z,17.34
2017-07-01T04:14:27.244Z,17.29
2017-07-01T04:14:53.370Z,17.16
2017-07-01T04:15:19.476Z,17.26
2017-07-01T04:15:45.586Z,17.3
2017-07-01T04:16:11.709Z,17.23
2017-07-01T04:16:37.813Z,17.29
2017-07-01T04:17:03.902Z,17.3
2017-07-01T04:17:30.074Z,17.26
2017-07-01T04:17:56.205Z,17.33
2017-07-01T04:18:22.301Z,17.34
2017-07-01T04:18:48.486Z,17.38
2017-07-01T04:19:14.570Z,17.3
2017-07-01T04:19:40.669Z,17.27
2017-07-01T04:20:06.773Z,17.26
2017-07-01T04:20:32.860Z,17.26
2017-07-01T04:20:58.981Z,17.2
2017-07-01T04:21:25.111Z,17.2
2017-07-01T04:21:51.204Z,17.23
2017-07-01T04:22:17.317Z,17.2
2017-07-01T04:22:43.426Z,17.16
2017-07-01T04:23:09.524Z,17.2
2017-07-01T04:23:35.639Z,17.22
2017-07-01T04:24:01.770Z,17.22
2017-07-01T04:24:27.889Z,17.15
2017-07-01T04:24:53.996Z,17.19
2017-07-01T04:25:20.116Z,17.2
2017-07-01T04:25:46.234Z,17.15
2017-07-01T04:26:12.341Z,17.12
2017-07-01T04:26:38.438Z,17.15
2017-07-01T04:27:04.599Z,17.22
2017-07-01T04:27:30.729Z,17.23
2017-07-01T04:27:56.827Z,17.24
2017-07-01T04:28:22.916Z,17.12
2017-07-01T04:28:49.071Z,17.11
2017-07-01T04:29:15.205Z,17.19
2017-07-01T04:29:41.296Z,17.15
2017-07-01T04:30:07.391Z,17.15
2017-07-01T04:30:33.482Z,17.04
2017-07-01T04:30:59.611Z,16.99
2017-07-01T04:31:25.737Z,17.02
2017-07-01T04:31:51.827Z,16.99
2017-07-01T04:32:17.983Z,17.02
2017-07-01T04:32:44.115Z,17.04
2017-07-01T04:33:10.226Z,16.97
2017-07-01T04:33:36.325Z,17.04
2017-07-01T04:34:02.432Z,16.97
2017-07-01T04:34:28.546Z,16.89
2017-07-01T04:34:54.667Z,17.01
2017-07-01T04:35:20.818Z,16.96
2017-07-01T04:35:46.920Z,16.89
2017-07-01T04:36:13.027Z,17.01
2017-07-01T04:36:39.164Z,16.94
2017-07-01T04:37:05.263Z,16.93
2017-07-01T04:37:31.394Z,16.99
2017-07-01T04:37:57.486Z,16.97
2017-07-01T04:38:23.604Z,17.04
2017-07-01T04:38:49.764Z,17.02
2017-07-01T04:39:15.854Z,17.01
2017-07-01T04:39:41.945Z,16.94
2017-07-01T04:40:08.054Z,16.94
2017-07-01T04:40:34.203Z,16.87
2017-07-01T04:41:00.333Z,16.96
2017-07-01T04:41:26.475Z,16.93
2017-07-01T04:41:52.596Z,17.01
2017-07-01T04:42:18.726Z,16.97
2017-07-01T04:42:44.869Z,16.97
2017-07-01T04:43:11.008Z,17.05
2017-07-01T04:43:37.113Z,16.91
2017-07-01T04:44:03.264Z,16.97
2017-07-01T04:44:29.380Z,17.05
2017-07-01T04:44:55.512Z,17.01
2017-07-01T04:45:21.610Z,16.96
2017-07-01T04:45:47.700Z,17.02
2017-07-01T04:46:13.827Z,16.99
2017-07-01T04:46:39.915Z,17.01
2017-07-01T04:47:06.025Z,17.04
2017-07-01T04:47:32.120Z,17.01
2017-07-01T04:47:58.207Z,16.9
2017-07-01T04:48:24.341Z,16.93
2017-07-01T04:48:50.523Z,17.01
2017-07-01T04:49:16.614Z,16.96
2017-07-01T04:49:42.740Z,17.05
2017-07-01T04:50:08.873Z,17.05
2017-07-01T04:50:34.958Z,16.97
2017-07-01T04:51:01.059Z,16.99
2017-07-01T04:51:27.164Z,17.06
2017-07-01T04:51:53.278Z,16.89
2017-07-01T04:52:19.372Z,16.84
2017-07-01T04:52:45.479Z,16.87
2017-07-01T04:53:11.570Z,16.87
2017-07-01T04:53:37.659Z,16.96
2017-07-01T04:54:03.796Z,16.86
2017-07-01T04:54:29.974Z,16.87
2017-07-01T04:54:56.064Z,16.97
2017-07-01T04:55:22.169Z,16.99
2017-07-01T04:55:48.324Z,16.9
2017-07-01T04:56:14.439Z,16.94
2017-07-01T04:56:40.542Z,17.01
2017-07-01T04:57:06.648Z,16.99
2017-07-01T04:57:32.768Z,17.06
2017-07-01T04:57:58.919Z,17.04
2017-07-01T04:58:25.011Z,17.02
2017-07-01T04:58:51.133Z,17.09
2017-07-01T04:59:17.244Z,17.02
2017-07-01T04:59:43.358Z,17.11
2017-07-01T05:00:09.459Z,17.14
2017-07-01T05:00:35.563Z,17.2
2017-07-01T05:01:01.649Z,17.11
2017-07-01T05:01:27.746Z,17.11
2017-07-01T05:01:53.934Z,17.14
2017-07-01T05:02:20.023Z,17.09
2017-07-01T05:02:46.117Z,17.12
2017-07-01T05:03:12.242Z,17.09
2017-07-01T05:03:38.370Z,16.96
2017-07-01T05:04:04.504Z,17.08
2017-07-01T05:04:30.590Z,17.11
2017-07-01T05:04:56.690Z,17.16
2017-07-01T05:05:22.795Z,17.23
2017-07-01T05:05:48.910Z,17.08
2017-07-01T05:06:15.004Z,17.23
2017-07-01T05:06:41.106Z,17.14
2017-07-01T05:07:07.226Z,17.26
2017-07-01T05:07:33.340Z,17.24
2017-07-01T05:07:59.449Z,17.2
2017-07-01T05:08:25.569Z,17.15
2017-07-01T05:08:51.670Z,17.23
2017-07-01T05:09:17.782Z,17.24
2017-07-01T05:09:43.877Z,17.22
2017-07-01T05:10:09.981Z,17.19
2017-07-01T05:10:36.127Z,17.22
2017-07-01T05:11:02.239Z,17.24
2017-07-01T05:11:28.345Z,17.26
2017-07-01T05:11:54.440Z,17.31
2017-07-01T05:12:20.556Z,17.34
2017-07-01T05:12:46.714Z,17.38
2017-07-01T05:13:12.870Z,17.29
2017-07-01T05:13:38.961Z,17.38
2017-07-01T05:14:05.065Z,17.41
2017-07-01T05:14:31.154Z,17.42
2017-07-01T05:14:57.260Z,17.41
2017-07-01T05:15:23.359Z,17.41
2017-07-01T05:15:49.473Z,17.48
2017-07-01T05:16:15.606Z,17.42
2017-07-01T05:16:41.705Z,17.46
2017-07-01T05:17:07.795Z,17.41
2017-07-01T05:17:33.897Z,17.38
2017-07-01T05:18:00.002Z,17.29
2017-07-01T05:18:26.086Z,17.34
2017-07-01T05:18:52.187Z,17.29
2017-07-01T05:19:18.294Z,17.36
2017-07-01T05:19:44.409Z,17.3
2017-07-01T05:20:10.513Z,17.38
2017-07-01T05:20:36.625Z,17.36
2017-07-01T05:21:02.730Z,17.36
2017-07-01T05:21:28.833Z,17.29
2017-07-01T05:21:54.920Z,17.36
2017-07-01T05:22:21.043Z,17.33
2017-07-01T05:22:47.149Z,17.38
2017-07-01T05:23:13.290Z,17.33
2017-07-01T05:23:39.437Z,17.39
2017-07-01T05:24:05.574Z,17.36
2017-07-01T05:24:31.734Z,17.45
2017-07-01T05:24:57.784Z,17.45
2017-07-01T05:25:23.915Z,17.45
2017-07-01T05:25:50.060Z,17.41
2017-07-01T05:26:16.165Z,17.39
2017-07-01T05:26:42.307Z,17.42
2017-07-01T05:27:08.404Z,17.45
2017-07-01T05:27:34.539Z,17.39
2017-07-01T05:28:00.655Z,17.46
2017-07-01T05:28:26.770Z,17.42
2017-07-01T05:28:52.880Z,17.48
2017-07-01T05:29:19.004Z,17.51
2017-07-01T05:29:45.118Z,17.45
2017-07-01T05:30:11.223Z,17.52
2017-07-01T05:30:37.322Z,17.52
2017-07-01T05:31:03.421Z,17.46
2017-07-01T05:31:29.567Z,17.46
2017-07-01T05:31:55.679Z,17.44
2017-07-01T05:32:21.816Z,17.48
2017-07-01T05:32:47.911Z,17.51
2017-07-01T05:33:14.026Z,17.54
2017-07-01T05:33:40.159Z,17.52
2017-07-01T05:34:06.287Z,17.49
2017-07-01T05:34:32.402Z,17.49
2017-07-01T05:34:58.505Z,17.48
2017-07-01T05:35:24.637Z,17.49
2017-07-01T05:35:50.724Z,17.59
2017-07-01T05:36:16.848Z,17.63
2017-07-01T05:36:42.954Z,17.65
2017-07-01T05:37:09.119Z,17.67
2017-07-01T05:37:35.239Z,17.65